Time;durP1;ratioP1;P1;durP2;ratioP2;P2;SDS_P1;SDS_P2;PMS_P1;PMS_P2;Temp;Humidity;BMP_temperature;BMP_pressure;BME280_temperature;BME280_humidity;BME280_pressure;Samples;Min_cycle;Max_cycle;Signal;HPM_P1;HPM_P2
2023/10/29 00:02:23;;;;;;;5.13;4.67;;;11.40;99.90;;;;;;5062358;28;20033;-57
2023/10/29 00:04:48;;;;;;;6.33;4.73;;;11.40;99.90;;;;;;5063782;28;20290;-58
2023/10/29 00:07:14;;;;;;;6.97;4.38;;;11.40;99.90;;;;;;5070223;28;20033;-58
2023/10/29 00:09:40;;;;;;;5.80;4.53;;;11.50;99.90;;;;;;5062420;28;20072;-58
2023/10/29 00:12:06;;;;;;;8.63;5.20;;;11.40;99.90;;;;;;5067959;28;20286;-57
2023/10/29 00:14:32;;;;;;;7.25;5.32;;;11.50;99.90;;;;;;5061678;28;20183;-55
2023/10/29 00:16:58;;;;;;;;;;;11.50;99.90;;;;;;5070009;28;20495;-57
2023/10/29 00:19:23;;;;;;;5.07;4.28;;;11.50;99.90;;;;;;5070197;28;20013;-58
2023/10/29 00:21:49;;;;;;;6.60;4.43;;;11.40;99.90;;;;;;5070665;28;20123;-56
2023/10/29 00:24:14;;;;;;;5.85;5.35;;;11.40;99.90;;;;;;5070220;28;20399;-57
2023/10/29 00:26:40;;;;;;;5.65;4.47;;;11.50;99.90;;;;;;5052811;28;20048;-57
2023/10/29 00:29:06;;;;;;;7.72;5.30;;;11.40;99.90;;;;;;5070651;28;20049;-57
2023/10/29 00:31:32;;;;;;;6.35;4.88;;;11.50;99.90;;;;;;5070170;28;20107;-57
2023/10/29 00:33:57;;;;;;;7.50;5.47;;;11.50;99.90;;;;;;5070647;28;20086;-60
2023/10/29 00:36:23;;;;;;;4.95;4.38;;;11.50;99.90;;;;;;5070430;28;20041;-60
2023/10/29 00:38:48;;;;;;;6.93;3.97;;;11.50;99.90;;;;;;5070240;28;20119;-60
2023/10/29 00:41:14;;;;;;;5.17;4.57;;;11.60;99.90;;;;;;5070226;28;20309;-60
2023/10/29 00:43:40;;;;;;;10.73;4.13;;;11.60;99.90;;;;;;5071189;28;20045;-60
2023/10/29 00:46:06;;;;;;;5.50;4.80;;;11.60;99.90;;;;;;5052386;28;20045;-60
2023/10/29 00:48:33;;;;;;;4.55;4.22;;;11.70;99.90;;;;;;5070921;28;20048;-58
2023/10/29 00:50:58;;;;;;;;;;;11.60;99.90;;;;;;5070293;28;20040;-59
2023/10/29 00:53:25;;;;;;;6.13;3.90;;;11.70;99.90;;;;;;5069710;28;20402;-61
2023/10/29 00:55:51;;;;;;;5.03;4.05;;;11.70;99.90;;;;;;5068871;28;20059;-60
2023/10/29 00:58:18;;;;;;;4.18;3.63;;;11.70;99.90;;;;;;5067212;28;20393;-59
2023/10/29 01:00:45;;;;;;;5.05;4.55;;;11.80;99.90;;;;;;5062565;28;20047;-61
2023/10/29 01:03:10;;;;;;;4.88;4.43;;;11.70;99.90;;;;;;5062055;28;20518;-60
2023/10/29 01:05:37;;;;;;;4.22;2.97;;;11.80;99.90;;;;;;5049914;28;20044;-61
2023/10/29 01:08:05;;;;;;;;;;;11.80;99.90;;;;;;5063145;28;20041;-60
2023/10/29 01:10:31;;;;;;;3.53;2.78;;;11.90;99.90;;;;;;5067317;28;19923;-60
2023/10/29 01:12:57;;;;;;;4.82;2.90;;;11.90;99.90;;;;;;5068175;28;20036;-61
2023/10/29 01:15:23;;;;;;;2.93;2.60;;;11.90;99.90;;;;;;5041793;28;20033;-60
2023/10/29 01:17:48;;;;;;;4.13;2.20;;;11.90;99.90;;;;;;5062693;28;20808;-61
2023/10/29 01:20:14;;;;;;;3.58;2.13;;;12.00;99.90;;;;;;5065979;28;20286;-59
2023/10/29 01:22:39;;;;;;;3.75;1.85;;;12.00;99.90;;;;;;5069099;28;20040;-61
2023/10/29 01:25:09;;;;;;;3.55;1.60;;;12.00;99.90;;;;;;5049628;28;20054;-61
2023/10/29 01:27:38;;;;;;;6.38;1.45;;;12.10;99.90;;;;;;5069406;28;20048;-60
2023/10/29 01:30:07;;;;;;;4.15;1.25;;;12.20;99.90;;;;;;5068200;28;20036;-59
2023/10/29 01:32:33;;;;;;;4.20;1.60;;;12.20;99.90;;;;;;5063761;28;20591;-61
2023/10/29 01:34:58;;;;;;;3.55;2.42;;;12.30;99.90;;;;;;5067863;28;20102;-61
2023/10/29 01:37:24;;;;;;;2.40;1.43;;;12.30;99.90;;;;;;5063859;28;20144;-61
2023/10/29 01:39:50;;;;;;;2.20;1.20;;;12.30;99.90;;;;;;5066955;28;20702;-60
2023/10/29 01:42:15;;;;;;;2.88;1.23;;;12.30;99.90;;;;;;5067774;28;20029;-59
2023/10/29 01:44:41;;;;;;;7.55;2.05;;;12.30;99.90;;;;;;5069595;28;20044;-61
2023/10/29 01:47:07;;;;;;;3.78;0.95;;;12.30;99.90;;;;;;5066209;28;20041;-60
2023/10/29 01:49:33;;;;;;;2.13;0.98;;;12.40;99.90;;;;;;5069109;28;20032;-61
2023/10/29 01:51:59;;;;;;;2.03;1.10;;;12.40;99.90;;;;;;5067543;28;20047;-61
2023/10/29 01:54:25;;;;;;;2.85;1.13;;;12.40;99.90;;;;;;5068882;28;20036;-59
2023/10/29 01:56:50;;;;;;;2.55;0.93;;;12.40;99.90;;;;;;5065116;28;20064;-61
2023/10/29 01:59:16;;;;;;;2.08;1.00;;;12.40;99.90;;;;;;5063214;28;20037;-60
2023/10/29 02:01:42;;;;;;;1.88;0.75;;;12.50;99.90;;;;;;5063425;28;20036;-60
2023/10/29 02:04:11;;;;;;;1.20;0.70;;;12.50;99.90;;;;;;5062052;28;20036;-61
2023/10/29 02:06:39;;;;;;;2.70;0.70;;;12.50;99.90;;;;;;5067844;28;20024;-61
2023/10/29 02:09:09;;;;;;;2.83;1.17;;;12.60;99.90;;;;;;5067089;28;20040;-61
2023/10/29 02:11:36;;;;;;;3.47;0.70;;;12.60;99.90;;;;;;5047355;28;20127;-60
2023/10/29 02:14:02;;;;;;;2.45;0.60;;;12.60;99.90;;;;;;5066316;28;20111;-60
2023/10/29 02:16:28;;;;;;;1.52;0.80;;;12.70;99.90;;;;;;5065965;28;20459;-61
2023/10/29 02:18:53;;;;;;;1.38;0.88;;;12.70;99.90;;;;;;5066130;28;20381;-60
2023/10/29 02:21:20;;;;;;;3.17;0.50;;;12.70;99.90;;;;;;5070894;28;20039;-60
2023/10/29 02:23:46;;;;;;;2.28;0.52;;;12.80;99.90;;;;;;5047431;28;20044;-60
2023/10/29 02:26:12;;;;;;;2.05;0.90;;;12.80;99.90;;;;;;5065957;28;20041;-60
2023/10/29 02:28:38;;;;;;;;;;;12.80;99.90;;;;;;5063326;28;20037;-58
2023/10/29 02:31:03;;;;;;;1.02;0.45;;;12.90;99.90;;;;;;5068887;28;19923;-58
2023/10/29 02:33:30;;;;;;;5.25;0.70;;;12.90;99.90;;;;;;5059887;28;20151;-57
2023/10/29 02:35:56;;;;;;;1.13;0.47;;;12.90;99.90;;;;;;5068242;28;20044;-57
2023/10/29 02:38:25;;;;;;;;;;;12.90;99.90;;;;;;5049654;28;20041;-57
2023/10/29 02:40:51;;;;;;;2.17;0.60;;;12.90;99.90;;;;;;5072076;28;20300;-57
2023/10/29 02:43:16;;;;;;;3.45;0.50;;;13.00;99.90;;;;;;5067992;28;20032;-58
2023/10/29 02:45:42;;;;;;;2.22;0.52;;;13.00;99.90;;;;;;5068046;28;20399;-58
2023/10/29 02:48:08;;;;;;;0.93;0.55;;;13.00;99.90;;;;;;5065620;28;20301;-58
2023/10/29 02:50:38;;;;;;;2.47;0.60;;;13.00;99.90;;;;;;5046346;28;20041;-56
2023/10/29 02:53:03;;;;;;;1.45;0.40;;;13.00;99.90;;;;;;5058383;28;20033;-58
2023/10/29 02:55:29;;;;;;;1.60;0.45;;;13.00;99.90;;;;;;5072601;28;20059;-58
2023/10/29 02:57:55;;;;;;;5.75;0.50;;;13.00;99.90;;;;;;5071875;28;20613;-57
2023/10/29 03:00:20;;;;;;;10.02;0.73;;;13.00;99.90;;;;;;5063771;28;20029;-56
2023/10/29 03:02:46;;;;;;;1.00;0.40;;;13.00;99.90;;;;;;5071106;28;20507;-57
2023/10/29 03:05:12;;;;;;;3.60;0.40;;;13.10;99.90;;;;;;5070447;28;20501;-59
2023/10/29 03:07:38;;;;;;;2.13;0.70;;;13.10;99.90;;;;;;5069879;28;20036;-58
2023/10/29 03:10:04;;;;;;;5.13;0.77;;;13.20;99.90;;;;;;5071214;28;20044;-60
2023/10/29 03:12:30;;;;;;;3.40;0.60;;;13.20;99.90;;;;;;5068574;28;20549;-61
2023/10/29 03:14:56;;;;;;;9.35;0.77;;;13.20;99.90;;;;;;5060609;28;20044;-61
2023/10/29 03:17:22;;;;;;;2.83;0.50;;;13.20;99.90;;;;;;5069479;28;20114;-60
2023/10/29 03:19:48;;;;;;;1.10;0.40;;;13.30;99.90;;;;;;5069155;28;20064;-58
2023/10/29 03:22:13;;;;;;;2.95;0.52;;;13.30;99.90;;;;;;5068583;28;20071;-58
2023/10/29 03:24:39;;;;;;;4.03;0.73;;;13.30;99.90;;;;;;5051830;28;20120;-59
2023/10/29 03:27:05;;;;;;;5.25;0.50;;;13.30;99.90;;;;;;5070816;28;20479;-58
2023/10/29 03:29:30;;;;;;;7.15;0.50;;;13.30;99.90;;;;;;5066807;28;20235;-58
2023/10/29 03:31:56;;;;;;;3.00;0.40;;;13.40;99.90;;;;;;5067903;28;20124;-58
2023/10/29 03:34:22;;;;;;;1.77;0.60;;;13.40;99.90;;;;;;5049159;28;20056;-58
2023/10/29 03:36:47;;;;;;;3.42;0.63;;;13.40;99.90;;;;;;5069027;28;20140;-60
2023/10/29 03:39:13;;;;;;;1.45;0.65;;;13.40;99.90;;;;;;5068804;28;20045;-60
2023/10/29 03:41:38;;;;;;;2.30;0.40;;;13.40;99.90;;;;;;5066142;28;20180;-60
2023/10/29 03:44:04;;;;;;;5.25;0.70;;;13.40;99.90;;;;;;5069148;28;20399;-60
2023/10/29 03:46:30;;;;;;;1.65;0.40;;;13.40;99.90;;;;;;5071313;28;20036;-61
2023/10/29 03:48:56;;;;;;;2.90;0.50;;;13.40;99.90;;;;;;5068652;28;20044;-57
2023/10/29 03:51:21;;;;;;;1.88;0.43;;;13.50;99.90;;;;;;5067163;28;20044;-56
2023/10/29 03:53:47;;;;;;;0.55;0.30;;;13.50;99.90;;;;;;5071310;28;20085;-58
2023/10/29 03:56:12;;;;;;;1.08;0.30;;;13.50;99.90;;;;;;5069204;28;20123;-56
2023/10/29 03:58:38;;;;;;;1.30;0.32;;;13.50;99.90;;;;;;5068239;28;20037;-56
2023/10/29 04:01:04;;;;;;;3.90;0.68;;;13.50;99.90;;;;;;5063290;28;20049;-58
2023/10/29 04:03:30;;;;;;;2.90;0.60;;;13.50;99.90;;;;;;5066648;28;20036;-56
2023/10/29 04:05:56;;;;;;;1.08;0.55;;;13.50;99.90;;;;;;5070099;28;20055;-58
2023/10/29 04:08:22;;;;;;;6.10;0.40;;;13.60;99.90;;;;;;5071227;28;20036;-57
2023/10/29 04:10:47;;;;;;;2.90;0.40;;;13.60;99.90;;;;;;5068170;28;20066;-57
2023/10/29 04:13:13;;;;;;;4.68;0.30;;;13.60;99.90;;;;;;5069445;28;20036;-58
2023/10/29 04:15:39;;;;;;;2.85;0.30;;;13.60;99.90;;;;;;5050743;28;20456;-58
2023/10/29 04:18:04;;;;;;;3.00;0.40;;;13.60;99.90;;;;;;5069646;28;20041;-58
2023/10/29 04:20:31;;;;;;;1.83;0.35;;;13.70;99.90;;;;;;5070049;28;20033;-58
2023/10/29 04:22:56;;;;;;;2.00;0.40;;;13.60;99.90;;;;;;5068061;28;20068;-57
2023/10/29 04:25:22;;;;;;;1.63;0.30;;;13.70;99.90;;;;;;5070320;28;20576;-57
2023/10/29 04:27:48;;;;;;;5.13;0.40;;;13.60;99.90;;;;;;5066562;28;20167;-55
2023/10/29 04:30:13;;;;;;;5.93;0.68;;;13.70;99.90;;;;;;5043032;28;20098;-59
2023/10/29 04:32:39;;;;;;;2.25;0.30;;;13.70;99.90;;;;;;5061348;28;20352;-57
2023/10/29 04:35:05;;;;;;;2.53;0.30;;;13.70;99.90;;;;;;5052600;28;20103;-58
2023/10/29 04:37:31;;;;;;;0.40;0.20;;;13.70;99.90;;;;;;5064022;28;20062;-57
2023/10/29 04:39:56;;;;;;;7.88;0.63;;;13.80;99.90;;;;;;5062273;28;20111;-56
2023/10/29 04:42:22;;;;;;;1.95;0.52;;;13.80;99.90;;;;;;5062169;28;20539;-57
2023/10/29 04:44:47;;;;;;;1.25;0.20;;;13.80;99.90;;;;;;5059863;28;20036;-58
2023/10/29 04:47:13;;;;;;;0.73;0.10;;;13.80;99.90;;;;;;5063226;28;20040;-56
2023/10/29 04:49:39;;;;;;;3.85;0.30;;;13.80;99.90;;;;;;5061857;28;20043;-58
2023/10/29 04:52:05;;;;;;;0.88;0.32;;;13.80;99.90;;;;;;5057945;28;20064;-58
2023/10/29 04:54:30;;;;;;;7.65;0.47;;;13.80;99.90;;;;;;5066827;28;20037;-57
2023/10/29 04:56:56;;;;;;;0.60;0.50;;;13.80;99.90;;;;;;5060343;28;20090;-57
2023/10/29 04:59:21;;;;;;;1.83;0.28;;;13.80;99.90;;;;;;5065150;28;20108;-58
2023/10/29 05:01:47;;;;;;;1.02;0.30;;;13.80;99.90;;;;;;5069752;28;20029;-58
2023/10/29 05:04:13;;;;;;;1.20;0.20;;;13.80;99.90;;;;;;5063425;28;20499;-57
2023/10/29 05:06:38;;;;;;;2.17;0.55;;;13.80;99.90;;;;;;5062982;28;20040;-57
2023/10/29 05:09:04;;;;;;;1.63;0.30;;;13.90;99.90;;;;;;5065869;28;20037;-58
2023/10/29 05:11:31;;;;;;;2.47;0.20;;;13.90;99.90;;;;;;5065205;28;20036;-56
2023/10/29 05:13:56;;;;;;;2.95;0.38;;;13.90;99.90;;;;;;5051085;28;20153;-57
2023/10/29 05:16:22;;;;;;;1.52;0.20;;;13.90;99.90;;;;;;5069887;28;20119;-57
2023/10/29 05:18:48;;;;;;;1.92;0.30;;;13.90;99.90;;;;;;5066643;28;20028;-58
2023/10/29 05:21:14;;;;;;;1.80;0.17;;;13.90;99.90;;;;;;5049942;28;20035;-57
2023/10/29 05:23:39;;;;;;;1.88;0.30;;;13.80;99.90;;;;;;5058768;28;20033;-58
2023/10/29 05:26:05;;;;;;;0.98;0.20;;;13.90;99.90;;;;;;5063915;28;20106;-57
2023/10/29 05:28:30;;;;;;;0.90;0.10;;;13.90;99.90;;;;;;5065286;28;20541;-58
2023/10/29 05:30:56;;;;;;;3.30;0.50;;;13.90;99.90;;;;;;5046604;28;20040;-57
2023/10/29 05:33:22;;;;;;;3.28;0.20;;;13.90;99.90;;;;;;5066807;28;20098;-57
2023/10/29 05:35:47;;;;;;;2.75;0.20;;;13.90;99.90;;;;;;5066338;28;20059;-56
2023/10/29 05:38:13;;;;;;;1.50;0.20;;;13.90;99.90;;;;;;5063335;28;20051;-58
2023/10/29 05:40:39;;;;;;;0.15;0.10;;;13.90;99.90;;;;;;5065692;28;20110;-57
2023/10/29 05:43:04;;;;;;;2.60;0.20;;;13.90;99.90;;;;;;5065360;28;20038;-57
2023/10/29 05:45:30;;;;;;;2.28;0.10;;;13.80;99.90;;;;;;5066941;28;20056;-56
2023/10/29 05:47:56;;;;;;;1.38;0.20;;;13.80;99.90;;;;;;5069210;28;20048;-56
2023/10/29 05:50:23;;;;;;;0.82;0.20;;;13.80;99.90;;;;;;5061348;28;20510;-58
2023/10/29 05:52:49;;;;;;;1.00;0.10;;;13.80;99.90;;;;;;5068027;28;20544;-58
2023/10/29 05:55:15;;;;;;;1.20;0.30;;;13.80;99.90;;;;;;5065644;28;20083;-56
2023/10/29 05:57:40;;;;;;;2.53;0.30;;;13.80;99.90;;;;;;5066253;28;20040;-57
2023/10/29 06:00:07;;;;;;;2.22;0.10;;;13.90;99.90;;;;;;5061303;28;20049;-58
2023/10/29 06:02:33;;;;;;;2.45;0.40;;;13.90;99.90;;;;;;5049616;28;20446;-59
2023/10/29 06:04:58;;;;;;;0.63;0.10;;;13.90;99.90;;;;;;5068274;28;20044;-59
2023/10/29 06:07:24;;;;;;;1.52;0.28;;;13.90;99.90;;;;;;5069125;28;20059;-58
2023/10/29 06:09:51;;;;;;;1.55;0.20;;;13.90;99.90;;;;;;5068965;28;20043;-58
2023/10/29 06:12:18;;;;;;;5.57;0.20;;;13.90;99.90;;;;;;5068478;28;20076;-58
2023/10/29 06:14:45;;;;;;;1.52;0.40;;;14.00;99.90;;;;;;5051179;28;20048;-58
2023/10/29 06:17:11;;;;;;;2.55;0.25;;;14.00;99.90;;;;;;5068857;28;20044;-57
2023/10/29 06:19:37;;;;;;;2.20;0.20;;;14.00;99.90;;;;;;5068055;28;20048;-59
2023/10/29 06:22:05;;;;;;;3.30;0.20;;;14.00;99.90;;;;;;5068632;28;20033;-56
2023/10/29 06:24:31;;;;;;;2.63;0.32;;;14.00;99.90;;;;;;5033873;28;20090;-58
2023/10/29 06:26:57;;;;;;;3.28;0.40;;;14.00;99.90;;;;;;5068958;28;20044;-59
2023/10/29 06:29:22;;;;;;;3.53;0.13;;;13.90;99.90;;;;;;5068956;28;20037;-58
2023/10/29 06:31:48;;;;;;;1.55;0.30;;;13.90;99.90;;;;;;5068587;28;20041;-58
2023/10/29 06:34:14;;;;;;;1.50;0.30;;;13.80;99.90;;;;;;5069152;28;20044;-58
2023/10/29 06:36:39;;;;;;;0.68;0.17;;;13.90;99.90;;;;;;5069264;28;20404;-57
2023/10/29 06:39:05;;;;;;;3.45;0.30;;;13.90;99.90;;;;;;5050218;28;20513;-58
2023/10/29 06:41:31;;;;;;;3.55;0.40;;;13.80;99.90;;;;;;5068638;28;20406;-58
2023/10/29 06:43:56;;;;;;;5.57;0.40;;;13.80;99.90;;;;;;5068685;28;20040;-61
2023/10/29 06:46:22;;;;;;;2.53;0.20;;;13.80;99.90;;;;;;5068997;28;20052;-57
2023/10/29 06:48:47;;;;;;;1.67;0.28;;;13.80;99.90;;;;;;5069090;28;20398;-60
2023/10/29 06:51:15;;;;;;;2.90;0.20;;;13.80;99.90;;;;;;5068267;28;20076;-60
2023/10/29 06:53:41;;;;;;;2.53;0.20;;;13.80;99.90;;;;;;5068238;28;20044;-60
2023/10/29 06:56:07;;;;;;;2.00;0.32;;;13.80;99.90;;;;;;5055879;28;20403;-60
2023/10/29 06:58:33;;;;;;;1.98;0.30;;;13.80;99.90;;;;;;5058137;28;20037;-59
2023/10/29 07:01:05;;;;;;;5.78;0.40;;;13.80;99.90;;;;;;5061332;28;20441;-59
2023/10/29 07:03:35;;;;;;;1.27;0.20;;;13.80;99.90;;;;;;5067533;28;20511;-59
2023/10/29 07:06:08;;;;;;;0.73;0.22;;;13.80;99.90;;;;;;5044025;28;20039;-60
2023/10/29 07:08:35;;;;;;;1.63;0.20;;;13.80;99.90;;;;;;5058161;28;20155;-58
2023/10/29 07:11:02;;;;;;;0.52;0.20;;;13.80;99.90;;;;;;5069507;28;20055;-58
2023/10/29 07:13:28;;;;;;;2.83;0.38;;;13.80;99.90;;;;;;5058337;28;20419;-59
2023/10/29 07:15:54;;;;;;;;;;;13.80;99.90;;;;;;5066453;28;20039;-58
2023/10/29 07:18:20;;;;;;;2.75;0.20;;;13.80;99.90;;;;;;5071017;28;19920;-61
2023/10/29 07:20:46;;;;;;;4.72;0.20;;;13.80;99.90;;;;;;5068789;28;20033;-59
2023/10/29 07:23:12;;;;;;;1.25;0.13;;;13.80;99.90;;;;;;5066124;28;20097;-60
2023/10/29 07:25:38;;;;;;;2.97;0.43;;;13.80;99.90;;;;;;5058602;28;20068;-59
2023/10/29 07:28:04;;;;;;;4.30;0.40;;;13.80;99.90;;;;;;5068856;28;20076;-60
2023/10/29 07:30:30;;;;;;;5.35;0.38;;;13.90;99.90;;;;;;5062473;28;20307;-60
2023/10/29 07:32:56;;;;;;;2.08;0.30;;;14.10;99.90;;;;;;5063127;28;20033;-60
2023/10/29 07:35:21;;;;;;;2.85;0.40;;;14.30;99.90;;;;;;5063867;28;20617;-59
2023/10/29 07:37:47;;;;;;;2.13;0.17;;;14.40;99.90;;;;;;5048195;28;20175;-59
2023/10/29 07:40:12;;;;;;;0.82;0.20;;;14.50;99.90;;;;;;5064375;28;20070;-59
2023/10/29 07:42:38;;;;;;;2.35;0.30;;;14.50;99.90;;;;;;5073558;28;20036;-59
2023/10/29 07:45:04;;;;;;;0.70;0.20;;;14.60;99.90;;;;;;5056926;28;20032;-59
2023/10/29 07:47:31;;;;;;;0.65;0.15;;;14.60;99.90;;;;;;5049642;28;20094;-58
2023/10/29 07:49:57;;;;;;;2.47;0.22;;;14.60;99.90;;;;;;5061042;28;20512;-57
2023/10/29 07:52:23;;;;;;;1.25;0.20;;;14.60;99.90;;;;;;5066583;28;20182;-59
2023/10/29 07:54:48;;;;;;;2.80;0.60;;;14.60;99.90;;;;;;5059281;28;20041;-60
2023/10/29 07:57:14;;;;;;;1.42;0.30;;;14.60;99.90;;;;;;5058950;28;20475;-60
2023/10/29 07:59:40;;;;;;;4.07;0.57;;;14.70;99.90;;;;;;5040661;28;20055;-59
2023/10/29 08:02:06;;;;;;;2.80;0.28;;;14.60;99.90;;;;;;5060486;28;20037;-60
2023/10/29 08:04:31;;;;;;;2.40;0.17;;;14.50;99.90;;;;;;5058116;28;20063;-60
2023/10/29 08:06:57;;;;;;;3.83;0.40;;;14.40;99.90;;;;;;5061048;28;20059;-61
2023/10/29 08:09:23;;;;;;;2.05;0.30;;;14.30;99.90;;;;;;5065362;28;20119;-60
2023/10/29 08:11:48;;;;;;;3.22;0.20;;;14.20;99.90;;;;;;5054870;28;20550;-60
2023/10/29 08:14:14;;;;;;;1.38;0.40;;;14.10;99.90;;;;;;5062744;28;20040;-61
2023/10/29 08:16:41;;;;;;;1.65;0.30;;;14.10;99.90;;;;;;5052491;28;20047;-60
2023/10/29 08:19:09;;;;;;;2.35;0.57;;;14.10;99.90;;;;;;5055712;28;20095;-60
2023/10/29 08:21:35;;;;;;;3.72;0.20;;;14.30;99.90;;;;;;5056983;28;20032;-61
2023/10/29 08:24:00;;;;;;;4.03;0.38;;;14.30;99.90;;;;;;5048965;28;20506;-61
2023/10/29 08:26:28;;;;;;;1.65;0.15;;;14.30;99.90;;;;;;5050193;28;20566;-61
2023/10/29 08:28:54;;;;;;;5.88;0.40;;;14.30;99.90;;;;;;5050420;28;20041;-60
2023/10/29 08:31:21;;;;;;;2.58;0.28;;;14.30;99.90;;;;;;5053888;28;20051;-60
2023/10/29 08:33:47;;;;;;;1.70;0.40;;;14.50;99.90;;;;;;5051971;28;20559;-61
2023/10/29 08:36:16;;;;;;;2.50;0.70;;;14.70;99.90;;;;;;5062913;28;20044;-60
2023/10/29 08:38:42;;;;;;;1.98;0.52;;;14.90;99.90;;;;;;5060505;28;20301;-62
2023/10/29 08:41:15;;;;;;;3.17;0.30;;;15.00;99.90;;;;;;5064178;28;20091;-61
2023/10/29 08:43:42;;;;;;;3.70;0.20;;;15.20;99.90;;;;;;5056996;28;20136;-60
2023/10/29 08:46:08;;;;;;;5.60;0.20;;;15.30;99.90;;;;;;5053882;28;20495;-61
2023/10/29 08:48:34;;;;;;;3.53;0.30;;;15.40;99.90;;;;;;5056103;28;20044;-61
2023/10/29 08:50:59;;;;;;;3.50;0.30;;;15.40;99.90;;;;;;5055475;28;20041;-60
2023/10/29 08:53:25;;;;;;;3.83;0.30;;;15.30;99.90;;;;;;5052661;28;20047;-62
2023/10/29 08:55:51;;;;;;;2.47;0.28;;;15.30;99.90;;;;;;5059144;28;20037;-62
2023/10/29 08:58:18;;;;;;;11.15;0.40;;;15.20;99.90;;;;;;5062584;28;20051;-61
2023/10/29 09:00:45;;;;;;;2.38;0.17;;;15.00;99.90;;;;;;5055077;28;20120;-62
2023/10/29 09:03:13;;;;;;;;;;;14.90;99.90;;;;;;5056494;28;20032;-61
2023/10/29 09:05:39;;;;;;;4.47;0.63;;;14.70;99.90;;;;;;5064865;28;19970;-59
2023/10/29 09:08:05;;;;;;;2.50;0.30;;;14.70;99.90;;;;;;5063091;28;20041;-62
2023/10/29 09:10:31;;;;;;;2.63;0.30;;;14.70;99.90;;;;;;5054951;28;20042;-60
2023/10/29 09:12:57;;;;;;;6.95;0.40;;;14.80;99.90;;;;;;5060092;28;20115;-61
2023/10/29 09:15:23;;;;;;;6.10;1.13;;;15.10;99.90;;;;;;5063198;28;20388;-61
2023/10/29 09:17:48;;;;;;;7.50;0.73;;;15.10;99.90;;;;;;5048418;28;20097;-61
2023/10/29 09:20:14;;;;;;;6.00;0.80;;;15.10;99.90;;;;;;5060389;28;20033;-62
2023/10/29 09:22:39;;;;;;;5.18;0.30;;;15.00;99.90;;;;;;5060790;28;20119;-63
2023/10/29 09:25:05;;;;;;;6.00;0.60;;;15.00;99.90;;;;;;5054564;28;20657;-63
2023/10/29 09:27:31;;;;;;;2.40;0.30;;;15.00;99.90;;;;;;5064320;28;20082;-62
2023/10/29 09:29:57;;;;;;;3.60;0.57;;;14.90;99.90;;;;;;5063724;28;20036;-63
2023/10/29 09:32:23;;;;;;;4.63;0.60;;;14.80;99.90;;;;;;5059135;28;20129;-62
2023/10/29 09:34:51;;;;;;;7.53;0.77;;;14.70;99.90;;;;;;5068738;28;20032;-61
2023/10/29 09:37:16;;;;;;;4.93;0.50;;;14.70;99.90;;;;;;5055026;28;20033;-62
2023/10/29 09:39:43;;;;;;;8.98;0.60;;;14.70;99.90;;;;;;5052632;28;20399;-62
2023/10/29 09:42:11;;;;;;;8.40;0.90;;;14.70;99.90;;;;;;5058772;28;20040;-65
2023/10/29 09:44:42;;;;;;;9.18;0.88;;;14.60;99.90;;;;;;5063714;28;20036;-61
2023/10/29 09:47:14;;;;;;;3.03;0.55;;;14.70;99.90;;;;;;5061225;28;20039;-64
2023/10/29 09:49:41;;;;;;;10.63;0.65;;;14.80;99.90;;;;;;5039032;28;20053;-63
2023/10/29 09:52:08;;;;;;;6.25;0.77;;;14.90;99.90;;;;;;5046055;28;20079;-64
2023/10/29 09:54:35;;;;;;;3.95;0.50;;;15.10;99.90;;;;;;5051869;28;20130;-64
2023/10/29 09:57:00;;;;;;;4.53;0.47;;;15.20;99.90;;;;;;5053985;28;20048;-65
2023/10/29 09:59:26;;;;;;;7.07;0.40;;;15.30;99.90;;;;;;5055714;28;20411;-63
2023/10/29 10:01:51;;;;;;;9.88;1.08;;;15.50;99.90;;;;;;5054156;28;20033;-63
2023/10/29 10:04:17;;;;;;;9.52;0.70;;;15.50;99.90;;;;;;5057030;28;20063;-63
2023/10/29 10:06:43;;;;;;;4.80;0.57;;;15.50;99.90;;;;;;5062541;28;20549;-63
2023/10/29 10:09:10;;;;;;;5.50;0.40;;;15.30;99.90;;;;;;5045820;28;20076;-64
2023/10/29 10:11:36;;;;;;;8.98;0.95;;;15.10;99.90;;;;;;5068487;28;20043;-63
2023/10/29 10:14:01;;;;;;;4.45;0.40;;;15.00;99.90;;;;;;5062187;28;20120;-62
2023/10/29 10:16:27;;;;;;;4.28;0.38;;;15.00;99.90;;;;;;5041918;28;20076;-63
2023/10/29 10:18:57;;;;;;;2.92;0.50;;;14.90;99.90;;;;;;5049166;28;20036;-63
2023/10/29 10:21:25;;;;;;;8.32;0.75;;;14.90;99.90;;;;;;5063806;28;20513;-63
2023/10/29 10:23:57;;;;;;;5.07;0.95;;;14.90;99.90;;;;;;5056392;28;20557;-62
2023/10/29 10:26:33;;;;;;;6.18;0.98;;;14.90;99.90;;;;;;5066226;28;20094;-62
2023/10/29 10:29:00;;;;;;;4.82;0.52;;;15.10;99.90;;;;;;5067476;28;20040;-63
2023/10/29 10:31:31;;;;;;;6.05;0.70;;;15.20;99.90;;;;;;5063784;28;20037;-64
2023/10/29 10:34:14;;;;;;;6.85;1.05;;;15.30;99.90;;;;;;5040907;28;20040;-63
2023/10/29 10:36:43;;;;;;;6.38;0.70;;;15.40;99.90;;;;;;5055028;28;20030;-63
2023/10/29 10:39:10;;;;;;;4.43;0.55;;;15.30;99.90;;;;;;5063745;28;20430;-63
2023/10/29 10:41:46;;;;;;;5.40;0.60;;;15.40;99.90;;;;;;5065061;28;20469;-61
2023/10/29 10:44:12;;;;;;;4.93;0.52;;;15.30;99.90;;;;;;5069187;28;20032;-61
2023/10/29 10:46:44;;;;;;;12.45;1.15;;;15.30;99.90;;;;;;5073376;28;20048;-60
2023/10/29 10:49:11;;;;;;;4.70;0.75;;;15.30;99.90;;;;;;5071879;28;20099;-61
2023/10/29 10:51:39;;;;;;;9.88;0.98;;;15.30;99.90;;;;;;5066231;28;20045;-61
2023/10/29 10:54:05;;;;;;;7.20;0.77;;;15.30;99.90;;;;;;5066354;28;20415;-61
2023/10/29 10:56:35;;;;;;;5.25;0.60;;;15.40;99.90;;;;;;5069509;28;20127;-61
2023/10/29 10:59:06;;;;;;;5.28;0.70;;;15.40;99.90;;;;;;5045333;28;20049;-61
2023/10/29 11:01:33;;;;;;;7.88;0.73;;;15.30;99.90;;;;;;5072007;28;20051;-61
2023/10/29 11:04:03;;;;;;;7.03;0.65;;;15.20;99.90;;;;;;5072703;28;20485;-61
2023/10/29 11:06:30;;;;;;;5.50;0.73;;;15.10;99.90;;;;;;5054704;28;20048;-60
2023/10/29 11:08:56;;;;;;;7.15;0.82;;;15.00;99.90;;;;;;5072591;28;20044;-61
2023/10/29 11:11:46;;;;;;;11.75;0.85;;;15.00;99.90;;;;;;5070768;28;20036;-61
2023/10/29 11:14:14;;;;;;;6.22;0.73;;;14.90;99.90;;;;;;5059783;28;20487;-61
2023/10/29 11:16:53;;;;;;;7.22;0.47;;;14.90;99.90;;;;;;5067100;28;20064;-61
2023/10/29 11:19:45;;;;;;;5.78;0.82;;;14.90;99.90;;;;;;5065595;28;20037;-61
2023/10/29 11:22:29;;;;;;;3.47;0.73;;;15.00;99.90;;;;;;5068550;28;20067;-61
2023/10/29 11:25:11;;;;;;;4.70;0.50;;;15.20;99.90;;;;;;5054064;28;20522;-61
2023/10/29 11:27:44;;;;;;;4.20;0.55;;;15.50;99.90;;;;;;5053003;28;20055;-61
2023/10/29 11:30:10;;;;;;;7.78;0.93;;;15.80;99.90;;;;;;5068420;28;20515;-62
2023/10/29 11:32:36;;;;;;;7.25;0.98;;;15.90;99.90;;;;;;5053051;28;20102;-61
2023/10/29 11:35:14;;;;;;;5.13;0.77;;;15.90;99.90;;;;;;5046214;28;20041;-62
2023/10/29 11:37:40;;;;;;;6.75;0.70;;;16.00;99.90;;;;;;5062975;28;20410;-61
2023/10/29 11:40:36;;;;;;;4.13;0.30;;;16.20;99.90;;;;;;5058476;28;20866;-62
2023/10/29 11:43:14;;;;;;;6.03;0.40;;;16.40;99.90;;;;;;4973226;28;20117;-62
2023/10/29 11:45:40;;;;;;;6.78;0.70;;;16.50;99.90;;;;;;4957867;28;20053;-62
2023/10/29 11:48:06;;;;;;;4.25;0.40;;;16.60;99.90;;;;;;4974232;28;20086;-60
2023/10/29 11:50:38;;;;;;;6.35;0.52;;;16.70;99.90;;;;;;4961616;28;20073;-60
2023/10/29 11:53:04;;;;;;;4.45;0.70;;;16.60;99.90;;;;;;4976518;28;20057;-61
2023/10/29 11:55:38;;;;;;;4.63;0.40;;;16.50;99.90;;;;;;4977115;28;20537;-60
2023/10/29 11:58:05;;;;;;;5.57;0.40;;;16.30;99.90;;;;;;4976706;28;20498;-59
2023/10/29 12:00:40;;;;;;;2.60;0.40;;;16.10;99.90;;;;;;4969792;28;20486;-60
2023/10/29 12:03:11;;;;;;;3.58;0.57;;;15.90;99.90;;;;;;4977461;28;20332;-60
2023/10/29 12:05:37;;;;;;;8.68;1.00;;;15.80;99.90;;;;;;4984495;28;20471;-60
2023/10/29 12:08:04;;;;;;;8.95;0.70;;;15.70;99.90;;;;;;4983502;28;20038;-60
2023/10/29 12:10:30;;;;;;;5.53;0.50;;;15.60;99.90;;;;;;4972365;28;20038;-59
2023/10/29 12:12:56;;;;;;;3.80;0.60;;;15.50;99.90;;;;;;4975326;28;20066;-61
2023/10/29 12:15:24;;;;;;;1.48;0.28;;;15.40;99.90;;;;;;4979049;28;20085;-61
2023/10/29 12:17:50;;;;;;;6.78;0.95;;;15.30;99.90;;;;;;4979196;28;20434;-61
2023/10/29 12:20:26;;;;;;;3.03;0.40;;;15.30;99.90;;;;;;5055578;28;20154;-61
2023/10/29 12:22:57;;;;;;;5.87;0.60;;;15.20;99.90;;;;;;5061996;28;20033;-60
2023/10/29 12:25:24;;;;;;;4.78;0.30;;;15.20;99.90;;;;;;5068500;28;20049;-61
2023/10/29 12:27:50;;;;;;;7.20;0.80;;;15.10;99.90;;;;;;5065124;28;20063;-61
2023/10/29 12:30:38;;;;;;;9.15;0.88;;;15.10;99.90;;;;;;5070877;28;20130;-61
2023/10/29 12:33:22;;;;;;;9.00;0.85;;;15.00;99.90;;;;;;5067165;28;20037;-61
2023/10/29 12:35:50;;;;;;;3.38;0.35;;;15.00;99.90;;;;;;5063094;28;20064;-61
2023/10/29 12:38:17;;;;;;;3.47;0.60;;;14.90;99.90;;;;;;5055504;28;20037;-61
2023/10/29 12:41:01;;;;;;;4.10;0.60;;;14.80;99.90;;;;;;5053421;28;20503;-61
2023/10/29 12:43:52;;;;;;;9.10;1.33;;;14.80;99.90;;;;;;5060574;28;20424;-61
2023/10/29 12:46:22;;;;;;;5.20;0.75;;;14.70;99.90;;;;;;5066765;28;20039;-61
2023/10/29 12:49:05;;;;;;;7.82;0.73;;;14.70;99.90;;;;;;5058121;28;20124;-61